2022年9月24日

时间 代码 天气 温度 能见度 天花板 METAR/SPECI
18:00
V
14 °C 10 km+ 10.000 ft 250° 250° 6 kt METAR LFCR 241600Z AUTO 25006KT 9999 -RA FEW016/// SCT048/// OVC100/// //////TCU 14/12 Q1014 TEMPO VRB15G30KT 4000 SHRA BKN013 SCT030CB
17:30
V
14 °C 10 km+ - 250° 250° 7 kt METAR LFCR 241530Z AUTO 25007KT 9999 //////CB 14/12 Q1014 TEMPO VRB15G30KT 4000 SHRA BKN013 SCT030CB
17:00
V
14 °C 10 km+ 7.400 ft 240° 240° 7 kt METAR LFCR 241500Z AUTO 24007KT 9999 -RA FEW040/// SCT062/// BKN074/// //////CB 14/12 Q1014 TEMPO VRB15G30KT 4000 SHRA BKN013 SCT030CB
16:30
V
14 °C 10 km+ 5.200 ft 260° 260° 8 kt METAR LFCR 241430Z AUTO 26008KT 9999 -RA FEW034/// BKN052/// OVC092/// //////CB 14/11 Q1014 TEMPO VRB15G30KT 4000 SHRA BKN013 SCT030CB
16:00
V
15 °C 10 km+ - 290° 290° 10 kt METAR LFCR 241400Z AUTO 29010KT 9999 //////TCU 15/11 Q1014 TEMPO VRB15G30KT 4000 SHRA BKN013 SCT030CB
15:30
V
16 °C 10 km+ 7.400 ft 290° 290° 7 kt METAR LFCR 241330Z AUTO 29007KT 9999 FEW034/// SCT056/// BKN074/// ///CB 16/10 Q1014 TEMPO VRB15G30KT 4000 SHRA BKN013 SCT030CB
15:00
V
16 °C 10 km+ 7.600 ft 290° 290° 9 kt METAR LFCR 241300Z AUTO 29009KT 9999 SCT030 BKN076 BKN120 16/10 Q1014 TEMPO 4000 SHRA BKN013 SCT030CB
14:30
V
16 °C 10 km+ 15.000 ft 290° 290° 9 kt METAR LFCR 241230Z AUTO 29009KT 250V310 9999 FEW033 BKN150 BKN170 16/10 Q1014 TEMPO 4000 SHRA BKN013 SCT030CB
14:00
V
16 °C 10 km+ 3.500 ft 310° 310° 8 kt METAR LFCR 241200Z AUTO 31008KT 9999 FEW020 BKN035 OVC047 16/12 Q1015 NOSIG
13:30
M
16 °C 10 km+ 2.400 ft 340° 340° 5 kt METAR LFCR 241130Z AUTO 34005KT 310V010 9999 FEW018 BKN024 BKN032 16/12 Q1015 BECMG SCT040TCU
13:00
V
16 °C 10 km+ 3.100 ft 350° 350° 5 kt METAR LFCR 241100Z AUTO 35005KT 260V040 9999 SCT015 BKN031 BKN047 16/12 Q1015 BECMG SCT040TCU
12:30
M
15 °C 10 km+ 1.300 ft 340° 340° 5 kt METAR LFCR 241030Z AUTO 34005KT 290V010 9999 BKN013 BKN026 BKN220 15/12 Q1015 BECMG SCT040TCU
12:00
M
16 °C 10 km+ 1.200 ft 030° 030° 3 kt METAR LFCR 241000Z AUTO 03003KT 340V070 9999 FEW008 BKN012 BKN028 16/13 Q1015 BECMG SCT007 BKN020
11:30
M
14 °C 10 km+ 1.700 ft 280° 280° 4 kt METAR LFCR 240930Z AUTO 28004KT 240V340 9999 FEW009 BKN017 OVC032 14/12 Q1015 NOSIG
11:00
M
15 °C 10 km+ 1.500 ft Var Var 3 kt METAR LFCR 240900Z AUTO VRB03KT 9999 BKN015 BKN020 OVC025 15/11 Q1015 NOSIG
10:30
V
16 °C 10 km+ 4.600 ft Var Var 2 kt METAR LFCR 240830Z AUTO VRB02KT 9999 FEW014 SCT019 OVC046 16/12 Q1015 NOSIG
10:00
I
14 °C 10 km+ 700 ft Var Var 2 kt METAR LFCR 240800Z AUTO VRB02KT 9999 BKN007 BKN022 BKN027 14/12 Q1015 BECMG SCT007 BKN020
09:30
M
13 °C 10 km+ 2.100 ft Var Var 1 kt METAR LFCR 240730Z AUTO VRB01KT 9999 FEW006 OVC021 13/12 Q1015 BECMG BKN010
09:00
M
13 °C 10 km+ 2.100 ft 150° 150° 3 kt METAR LFCR 240700Z AUTO 15003KT 9999 FEW006 BKN021 OVC044 13/12 Q1015 BECMG BKN010
08:30
M
13 °C 10 km+ 1.100 ft 150° 150° 3 kt METAR LFCR 240630Z AUTO 15003KT 9999 SCT005 BKN011 OVC022 13/12 Q1015 NOSIG
08:00
I
12 °C 10 km+ 600 ft 110° 110° 2 kt METAR LFCR 240600Z AUTO 11002KT 9999 BKN006 OVC023 12/12 Q1015 BECMG BKN010
07:30
M
12 °C 10 km+ 1.700 ft Var Var 2 kt METAR LFCR 240530Z AUTO VRB02KT 9999 FEW005 OVC017 12/12 Q1015 BECMG BKN010
07:00
I
12 °C 10 km+ 600 ft Var Var 1 kt METAR LFCR 240500Z AUTO VRB01KT 9999 BKN006 OVC019 12/12 Q1015 TEMPO 3000 -DZ OVC001
06:30
I
12 °C 9 km 800 ft Var 000° 0 kt METAR LFCR 240430Z AUTO 00000KT 9000 SCT004 BKN008 OVC021 12/12 Q1015 TEMPO 3000 -DZ OVC001
06:00
M
12 °C 9 km 1.200 ft 310° 310° 3 kt METAR LFCR 240400Z AUTO 31003KT 280V340 9000 SCT005 BKN012 OVC017 12/12 Q1015 TEMPO 3000 -DZ OVC001
05:30
I
12 °C 10 km+ 600 ft 300° 300° 4 kt METAR LFCR 240330Z AUTO 30004KT 9999 OVC006 12/12 Q1015 TEMPO 3000 -DZ OVC001
05:00
I
12 °C 10 km+ 600 ft Var Var 3 kt METAR LFCR 240300Z AUTO VRB03KT 9999 OVC006 12/12 Q1015 TEMPO 3000 -DZ OVC001
04:30
I
12 °C 10 km+ 600 ft 330° 330° 2 kt METAR LFCR 240230Z AUTO 33002KT 9999 BKN006 OVC035 12/12 Q1015 TEMPO 3000 -DZ OVC001
04:00
I
12 °C 10 km+ 500 ft Var 000° 0 kt METAR LFCR 240200Z AUTO 00000KT 9999 OVC005 12/12 Q1016 NOSIG
03:30
L
12 °C 7 km 200 ft Var Var 2 kt METAR LFCR 240130Z AUTO VRB02KT 7000 OVC002 12/12 Q1016 TEMPO BKN008
03:00
I
12 °C 10 km+ 500 ft Var Var 3 kt METAR LFCR 240100Z AUTO VRB03KT 9999 BKN005 BKN021 12/12 Q1016 TEMPO 0400 FG VV///
02:30
M
12 °C 10 km+ 1.600 ft 270° 270° 3 kt METAR LFCR 240030Z AUTO 27003KT 9999 FEW004 OVC016 12/12 Q1016 TEMPO BKN008
02:00
L
12 °C 1,3 km - 320° 320° 3 kt METAR LFCR 240000Z AUTO 32003KT 1300 R31/1400U BR VV/// 12/12 Q1016 TEMPO BKN008 BECMG 9999 NSW
01:30
L
12 °C 8 km 300 ft 320° 320° 6 kt METAR LFCR 232330Z AUTO 32006KT 8000 BKN003 OVC110 12/12 Q1016 TEMPO 4000 RA BECMG SCT025TCU BKN040
01:00
V
13 °C 10 km+ - Var Var 2 kt METAR LFCR 232300Z AUTO VRB02KT 9999 ///TCU 13/12 Q1017 TEMPO 4000 RA BKN006
00:30
V
12 °C 10 km+ - 140° 140° 8 kt METAR LFCR 232230Z AUTO 14008KT 9999 -RA //////CB 12/12 Q1017 TEMPO 4000 RA BKN006
00:00
V
12 °C 9 km - 150° 150° 8 kt METAR LFCR 232200Z AUTO 15008KT 9000 RA //////CB 12/12 Q1018 TEMPO 4000 RA BKN006

2022年9月23日

时间 代码 天气 温度 能见度 天花板 METAR/SPECI
23:30
V
12 °C 9 km - 140° 140° 6 kt METAR LFCR 232130Z AUTO 14006KT 9000 -RA //////CB 12/12 Q1018 TEMPO 4000 RA BKN006
23:00
M
13 °C 7 km 5.600 ft 120° 120° 5 kt METAR LFCR 232100Z AUTO 12005KT 7000 RA FEW038/// SCT045/// BKN056/// ///CB 13/12 Q1018 TEMPO 4000 RA BKN006
22:30
M
12 °C 6 km 4.600 ft 110° 110° 3 kt METAR LFCR 232030Z AUTO 11003KT 6000 RA FEW039/// BKN046/// BKN066/// //////CB 12/12 Q1018 TEMPO 4000 RA BKN006
22:00
M
13 °C 7 km 4.300 ft 150° 150° 5 kt METAR LFCR 232000Z AUTO 15005KT 7000 RA FEW036/// BKN043/// OVC049/// //////CB 13/12 Q1018 TEMPO 4000 SHRA BKN012 SCT020CB
21:30
V
13 °C 9 km 4.800 ft Var Var 2 kt METAR LFCR 231930Z AUTO VRB02KT 9000 RA FEW023/// BKN048/// OVC056/// //////CB 13/12 Q1018 TEMPO 4000 SHRA BKN012 SCT020CB
21:00
M
13 °C 6 km 3.300 ft 290° 290° 3 kt METAR LFCR 231900Z AUTO 29003KT 6000 RA FEW025/// OVC033/// ///CB 13/12 Q1018 TEMPO 30015G25KT 4000 SHRA BKN012 SCT020CB
20:30
I
13 °C 3,8 km 1.900 ft 330° 330° 5 kt METAR LFCR 231830Z AUTO 33005KT 290V010 3800 RA BR FEW013/// BKN019/// BKN024/// //////CB 13/12 Q1018 TEMPO 30015G25KT 2000 TSRA BKN012 SCT020CB
20:00
I
14 °C 4,8 km 1.900 ft 320° 320° 8 kt METAR LFCR 231800Z AUTO 32008KT 4800 +RA BR FEW010/// BKN019/// BKN031/// ///CB 14/12 Q1018 TEMPO 30015G25KT 2000 TSRA BKN012 SCT020CB
19:30
I
15 °C 3,5 km 3.900 ft 210° 210° 10 kt METAR LFCR 231730Z AUTO 21010KT 170V260 3500 +RA BR VCTS FEW026/// SCT032/// BKN039/// ///CB 15/14 Q1017 TEMPO 30015G25KT 2000 TSRA BKN012 SCT020CB
19:00
V
17 °C 9 km 4.300 ft 240° 240° 6 kt METAR LFCR 231700Z AUTO 24006KT 180V300 9000 RA SCT032/// BKN043/// BKN054/// ///CB 17/13 Q1017 TEMPO 30015G25KT 2000 TSRA BKN012 SCT020CB
18:30
V
19 °C 10 km+ - 150° 150° 13 kt METAR LFCR 231630Z AUTO 15013KT 9999 //////CB 19/12 Q1016 TEMPO 30015G25KT 2000 TSRA BKN012 SCT020CB
18:00
V
20 °C 10 km+ - 150° 150° 12 kt METAR LFCR 231600Z AUTO 15012KT 9999 //////CB 20/12 Q1016 TEMPO 30015G25KT 2000 TSRA BKN012 SCT020CB
17:30
V
20 °C 10 km+ - 140° 140° 12 kt METAR LFCR 231530Z AUTO 14012KT 9999 ///CB 20/12 Q1016 TEMPO 30015G25KT 2000 TSRA BKN012 SCT020CB
17:00
V
21 °C 10 km+ - 140° 140° 12 kt METAR LFCR 231500Z AUTO 14012KT CAVOK 21/12 Q1016 TEMPO 30015G25KT 2000 TSRA BKN012 SCT020CB
16:30
V
22 °C 10 km+ - 150° 150° 10 kt METAR LFCR 231430Z AUTO 15010KT CAVOK 22/11 Q1016 TEMPO 30015G25KT 2000 TSRA BKN012 SCT020CB
16:00
V
22 °C 10 km+ 18.000 ft 140° 140° 9 kt METAR LFCR 231400Z AUTO 14009KT 100V160 9999 FEW048 SCT060 BKN180 22/11 Q1017 NOSIG
15:30
V
22 °C 10 km+ - 160° 160° 10 kt METAR LFCR 231330Z AUTO 16010KT 140V200 CAVOK 22/11 Q1017 NOSIG
15:00
V
22 °C 10 km+ - 140° 140° 9 kt METAR LFCR 231300Z AUTO 14009KT 110V180 CAVOK 22/11 Q1017 NOSIG
14:30
V
22 °C 10 km+ 21.000 ft 130° 130° 11 kt METAR LFCR 231230Z AUTO 13011KT 100V170 9999 FEW046 SCT110 BKN210 22/11 Q1018 NOSIG
14:00
V
23 °C 10 km+ 10.000 ft 190° 190° 8 kt METAR LFCR 231200Z AUTO 19008KT 140V240 9999 FEW044 BKN100 BKN240 23/11 Q1018 NOSIG
13:30
V
22 °C 10 km+ - 180° 180° 9 kt METAR LFCR 231130Z AUTO 18009KT 140V230 CAVOK 22/11 Q1018 TEMPO SCT050TCU
13:00
V
22 °C 10 km+ 23.000 ft 150° 150° 9 kt METAR LFCR 231100Z AUTO 15009KT 100V210 9999 FEW040 BKN230 22/11 Q1018 TEMPO SCT050TCU
12:30
V
21 °C 10 km+ - 140° 140° 10 kt METAR LFCR 231030Z AUTO 14010KT CAVOK 21/12 Q1019 TEMPO SCT050TCU
12:00
V
21 °C 10 km+ - 140° 140° 9 kt METAR LFCR 231000Z AUTO 14009KT 100V170 9999 FEW037 21/12 Q1019 NOSIG
11:30
V
20 °C 10 km+ - 150° 150° 8 kt METAR LFCR 230930Z AUTO 15008KT 110V190 CAVOK 20/12 Q1019 NOSIG
11:00
V
19 °C 10 km+ - 130° 130° 7 kt METAR LFCR 230900Z AUTO 13007KT 100V160 CAVOK 19/12 Q1019 NOSIG
10:30
V
18 °C 10 km+ - 130° 130° 9 kt METAR LFCR 230830Z AUTO 13009KT CAVOK 18/12 Q1019 NOSIG
10:00
V
17 °C 10 km+ - 130° 130° 9 kt METAR LFCR 230800Z AUTO 13009KT CAVOK 17/12 Q1019 NOSIG
09:30
V
15 °C 10 km+ - 120° 120° 7 kt METAR LFCR 230730Z AUTO 12007KT 9999 NSC 15/11 Q1019 NOSIG
09:00
V
14 °C 10 km+ - 120° 120° 8 kt METAR LFCR 230700Z AUTO 12008KT CAVOK 14/09 Q1019 NOSIG
08:30
V
12 °C 10 km+ - 120° 120° 7 kt METAR LFCR 230630Z AUTO 12007KT CAVOK 12/08 Q1019 NOSIG
08:00
V
11 °C 10 km+ - 090° 090° 5 kt METAR LFCR 230600Z AUTO 09005KT CAVOK 11/07 Q1019 NOSIG
07:30
V
8 °C 10 km+ - 090° 090° 2 kt METAR LFCR 230530Z AUTO 09002KT CAVOK 08/05 Q1019 NOSIG
07:00
V
9 °C 10 km+ - 090° 090° 2 kt METAR LFCR 230500Z AUTO 09002KT CAVOK 09/05 Q1019 NOSIG
06:30
V
10 °C 10 km+ - 090° 090° 6 kt METAR LFCR 230430Z AUTO 09006KT CAVOK 10/06 Q1019 NOSIG
06:00
V
9 °C 10 km+ - 120° 120° 4 kt METAR LFCR 230400Z AUTO 12004KT CAVOK 09/06 Q1019 NOSIG
05:30
V
10 °C 10 km+ - 120° 120° 2 kt METAR LFCR 230330Z AUTO 12002KT CAVOK 10/05 Q1018 NOSIG
05:00
V
10 °C 10 km+ - Var Var 2 kt METAR LFCR 230300Z AUTO VRB02KT CAVOK 10/06 Q1019 NOSIG
04:30
V
11 °C 10 km+ - 110° 110° 5 kt METAR LFCR 230230Z AUTO 11005KT CAVOK 11/06 Q1019 NOSIG
04:00
V
11 °C 10 km+ - 120° 120° 4 kt METAR LFCR 230200Z AUTO 12004KT CAVOK 11/06 Q1019 NOSIG
03:30
V
12 °C 10 km+ - 110° 110° 3 kt METAR LFCR 230130Z AUTO 11003KT 070V130 CAVOK 12/07 Q1019 NOSIG
03:00
V
10 °C 10 km+ - 190° 190° 3 kt METAR LFCR 230100Z AUTO 19003KT CAVOK 10/06 Q1019 NOSIG
02:30
V
13 °C 10 km+ - 120° 120° 3 kt METAR LFCR 230030Z AUTO 12003KT 070V140 CAVOK 13/07 Q1019 NOSIG
02:00
V
11 °C 10 km+ - 140° 140° 5 kt METAR LFCR 230000Z AUTO 14005KT CAVOK 11/06 Q1019 NOSIG
01:30
V
12 °C 10 km+ - 140° 140° 5 kt METAR LFCR 222330Z AUTO 14005KT CAVOK 12/07 Q1019 NOSIG
01:00
V
10 °C 10 km+ - 160° 160° 3 kt METAR LFCR 222300Z AUTO 16003KT CAVOK 10/05 Q1019 NOSIG
00:30
V
11 °C 10 km+ - 140° 140° 3 kt METAR LFCR 222230Z AUTO 14003KT CAVOK 11/05 Q1019 NOSIG
00:00
V
13 °C 10 km+ - 150° 150° 2 kt METAR LFCR 222200Z AUTO 15002KT CAVOK 13/06 Q1020 NOSIG

2022年9月22日

时间 代码 天气 温度 能见度 天花板 METAR/SPECI
23:30
V
13 °C 10 km+ - Var 000° 0 kt METAR LFCR 222130Z AUTO 00000KT CAVOK 13/05 Q1019 NOSIG
23:00
V
13 °C 10 km+ - 260° 260° 2 kt METAR LFCR 222100Z AUTO 26002KT CAVOK 13/05 Q1019 NOSIG
22:30
V
14 °C 10 km+ - 250° 250° 2 kt METAR LFCR 222030Z AUTO 25002KT CAVOK 14/06 Q1019 NOSIG
22:00
V
14 °C 10 km+ - 210° 210° 3 kt METAR LFCR 222000Z AUTO 21003KT CAVOK 14/06 Q1019 NOSIG
21:30
V
15 °C 10 km+ - 220° 220° 3 kt METAR LFCR 221930Z AUTO 22003KT CAVOK 15/06 Q1019 NOSIG
21:00
V
17 °C 10 km+ - Var Var 1 kt METAR LFCR 221900Z AUTO VRB01KT CAVOK 17/06 Q1019 NOSIG
20:30
V
19 °C 10 km+ - 320° 320° 3 kt METAR LFCR 221830Z AUTO 32003KT CAVOK 19/07 Q1019 NOSIG
20:00
V
19 °C 10 km+ - 310° 310° 4 kt METAR LFCR 221800Z AUTO 31004KT CAVOK 19/07 Q1019 NOSIG
19:30
V
20 °C 10 km+ - 300° 300° 6 kt METAR LFCR 221730Z AUTO 30006KT CAVOK 20/07 Q1019 NOSIG
19:00
V
22 °C 10 km+ - 310° 310° 7 kt METAR LFCR 221700Z AUTO 31007KT CAVOK 22/08 Q1018 NOSIG
18:30
V
23 °C 10 km+ - 280° 280° 7 kt METAR LFCR 221630Z AUTO 28007KT 250V310 CAVOK 23/08 Q1018 NOSIG
18:00
V
23 °C 10 km+ - 330° 330° 7 kt METAR LFCR 221600Z AUTO 33007KT 300V010 CAVOK 23/08 Q1018 NOSIG
17:30
V
23 °C 10 km+ - 300° 300° 7 kt METAR LFCR 221530Z AUTO 30007KT 270V350 CAVOK 23/08 Q1019 NOSIG
17:00
V
23 °C 10 km+ - 310° 310° 8 kt METAR LFCR 221500Z AUTO 31008KT 270V360 CAVOK 23/08 Q1019 NOSIG
较旧的数据

我们和第三方通过cookies跟踪您在我们网站上的上网行为。如果您继续,我们认为您同意我们的cookie政策。 了解更多